Time;durP1;ratioP1;P1;durP2;ratioP2;P2;SDS_P1;SDS_P2;PMS_P1;PMS_P2;Temp;Humidity;BMP_temperature;BMP_pressure;BME280_temperature;BME280_humidity;BME280_pressure;Samples;Min_cycle;Max_cycle;Signal;HPM_P1;HPM_P2
2021/07/15 00:02:00;;;;;;;12.20;6.88;;;;;;;;;;4969974;28;20078;-76
2021/07/15 00:04:26;;;;;;;23.90;7.75;;;;;;;;;;4968259;28;20522;-77
2021/07/15 00:06:51;;;;;;;18.48;7.80;;;;;;;;;;4968633;28;20034;-75
2021/07/15 00:09:17;;;;;;;12.77;6.38;;;;;;;;;;4966542;28;20038;-76
2021/07/15 00:11:48;;;;;;;18.73;6.72;;;;;;;;;;4972671;28;20453;-76
2021/07/15 00:14:20;;;;;;;14.90;6.10;;;;;;;;;;4965043;28;20030;-79
2021/07/15 00:16:47;;;;;;;19.10;5.97;;;;;;;;;;4965026;28;20047;-77
2021/07/15 00:19:15;;;;;;;16.27;6.85;;;;;;;;;;4984272;28;20042;-77
2021/07/15 00:21:41;;;;;;;13.85;5.63;;;;;;;;;;4967074;28;20026;-76
2021/07/15 00:24:07;;;;;;;13.13;5.47;;;;;;;;;;4973130;28;20022;-77
2021/07/15 00:26:32;;;;;;;13.60;6.25;;;;;;;;;;4972094;28;20049;-75
2021/07/15 00:28:58;;;;;;;12.55;6.25;;;;;;;;;;4972454;28;20054;-78
2021/07/15 00:31:23;;;;;;;17.98;6.28;;;;;;;;;;4956419;28;20197;-77
2021/07/15 00:33:49;;;;;;;15.43;6.22;;;;;;;;;;4969495;28;20030;-77
2021/07/15 00:36:14;;;;;;;16.85;6.13;;;;;;;;;;4973435;28;20037;-76
2021/07/15 00:38:40;;;;;;;8.73;4.43;;;;;;;;;;4973732;28;20093;-78
2021/07/15 00:41:07;;;;;;;11.95;4.70;;;;;;;;;;4970825;28;20031;-75
2021/07/15 00:43:33;;;;;;;12.75;3.92;;;;;;;;;;4968910;28;20039;-77
2021/07/15 00:45:59;;;;;;;8.77;4.38;;;;;;;;;;4971738;28;20041;-77
2021/07/15 00:48:25;;;;;;;7.65;4.22;;;;;;;;;;4986575;28;20568;-76
2021/07/15 00:50:51;;;;;;;8.57;4.25;;;;;;;;;;4973518;28;20030;-76
2021/07/15 00:53:17;;;;;;;6.55;3.70;;;;;;;;;;4973065;28;20077;-75
2021/07/15 00:55:44;;;;;;;10.25;4.22;;;;;;;;;;4956593;28;20085;-76
2021/07/15 00:58:13;;;;;;;5.45;2.90;;;;;;;;;;4972117;28;20267;-75
2021/07/15 01:00:44;;;;;;;7.07;3.00;;;;;;;;;;4987061;28;20057;-75
2021/07/15 01:03:11;;;;;;;8.60;3.13;;;;;;;;;;4989773;28;20038;-76
2021/07/15 01:05:42;;;;;;;7.65;3.25;;;;;;;;;;4993891;28;20042;-77
2021/07/15 01:08:09;;;;;;;8.02;3.08;;;;;;;;;;4992603;28;20080;-77
2021/07/15 01:10:39;;;;;;;8.05;3.17;;;;;;;;;;5001673;28;20082;-75
2021/07/15 01:13:14;;;;;;;8.98;3.97;;;;;;;;;;4992476;28;20026;-83
2021/07/15 01:15:58;;;;;;;5.40;3.15;;;;;;;;;;4993114;28;20022;-87
2021/07/15 01:19:04;;;;;;;6.80;2.58;;;;;;;;;;4989212;28;20122;-84
2021/07/15 01:22:00;;;;;;;7.00;2.67;;;;;;;;;;4999492;28;20034;-82
2021/07/15 01:25:09;;;;;;;4.93;2.63;;;;;;;;;;4986876;28;20019;-84
2021/07/15 01:27:44;;;;;;;7.57;2.30;;;;;;;;;;4992933;28;20084;-83
2021/07/15 01:30:27;;;;;;;5.22;2.40;;;;;;;;;;4988620;28;20087;-84
2021/07/15 01:33:00;;;;;;;4.82;2.60;;;;;;;;;;4989336;28;20076;-81
2021/07/15 01:35:42;;;;;;;7.82;2.60;;;;;;;;;;4988519;28;20113;-84
2021/07/15 01:38:11;;;;;;;7.22;2.65;;;;;;;;;;4995341;28;20399;-84
2021/07/15 01:40:51;;;;;;;4.95;2.65;;;;;;;;;;4995740;28;20121;-82
2021/07/15 01:43:20;;;;;;;5.30;2.55;;;;;;;;;;4988009;28;20037;-77
2021/07/15 01:45:46;;;;;;;3.42;2.47;;;;;;;;;;4982349;28;20261;-77
2021/07/15 01:48:14;;;;;;;7.53;2.65;;;;;;;;;;4998954;28;20448;-77
2021/07/15 01:50:40;;;;;;;7.15;2.47;;;;;;;;;;4991753;28;20104;-76
2021/07/15 01:53:06;;;;;;;6.50;2.70;;;;;;;;;;5001706;28;20616;-75
2021/07/15 01:55:32;;;;;;;5.35;2.50;;;;;;;;;;4956773;28;20522;-76
2021/07/15 01:57:58;;;;;;;5.90;2.58;;;;;;;;;;4992147;28;20088;-76
2021/07/15 02:00:24;;;;;;;5.10;2.70;;;;;;;;;;4988958;28;20660;-78
2021/07/15 02:02:52;;;;;;;4.15;2.10;;;;;;;;;;4975613;28;20038;-77
2021/07/15 02:05:18;;;;;;;7.97;2.47;;;;;;;;;;5001087;28;20425;-75
2021/07/15 02:07:45;;;;;;;4.97;2.13;;;;;;;;;;4958158;28;20454;-77
2021/07/15 02:10:16;;;;;;;4.82;2.10;;;;;;;;;;4991088;28;20394;-76
2021/07/15 02:12:42;;;;;;;4.68;2.92;;;;;;;;;;4999405;28;20029;-78
2021/07/15 02:15:08;;;;;;;3.67;2.00;;;;;;;;;;5002421;28;20017;-76
2021/07/15 02:17:35;;;;;;;3.72;2.03;;;;;;;;;;4985445;28;20525;-75
2021/07/15 02:20:02;;;;;;;4.45;2.03;;;;;;;;;;4989183;28;20033;-78
2021/07/15 02:22:28;;;;;;;3.85;1.88;;;;;;;;;;4989746;28;20026;-75
2021/07/15 02:24:54;;;;;;;5.63;2.28;;;;;;;;;;4990843;28;20136;-75
2021/07/15 02:27:20;;;;;;;3.88;2.28;;;;;;;;;;4989525;28;20096;-77
2021/07/15 02:29:45;;;;;;;5.35;2.33;;;;;;;;;;4989047;28;20429;-76
2021/07/15 02:32:12;;;;;;;4.65;2.40;;;;;;;;;;4971053;28;20256;-78
2021/07/15 02:34:58;;;;;;;3.83;2.35;;;;;;;;;;4990104;28;20285;-77
2021/07/15 02:37:31;;;;;;;6.35;2.72;;;;;;;;;;4987785;28;20034;-76
2021/07/15 02:39:57;;;;;;;9.15;2.55;;;;;;;;;;4988886;28;20022;-76
2021/07/15 02:42:23;;;;;;;7.45;2.65;;;;;;;;;;4984598;28;20498;-76
2021/07/15 02:44:49;;;;;;;6.15;2.42;;;;;;;;;;4969624;28;20121;-76
2021/07/15 02:47:15;;;;;;;4.70;2.70;;;;;;;;;;4989514;28;20377;-77
2021/07/15 02:49:41;;;;;;;4.75;2.92;;;;;;;;;;4989069;28;20032;-79
2021/07/15 02:52:09;;;;;;;4.22;2.83;;;;;;;;;;4991907;28;20501;-77
2021/07/15 02:54:35;;;;;;;6.30;2.25;;;;;;;;;;4991293;28;20034;-76
2021/07/15 02:57:11;;;;;;;4.65;2.47;;;;;;;;;;4987668;28;20501;-78
2021/07/15 02:59:47;;;;;;;5.85;2.47;;;;;;;;;;4995140;28;20030;-77
2021/07/15 03:02:31;;;;;;;5.07;2.10;;;;;;;;;;4984733;28;20390;-78
2021/07/15 03:05:06;;;;;;;4.00;2.20;;;;;;;;;;5002363;28;20089;-78
2021/07/15 03:07:36;;;;;;;8.15;2.45;;;;;;;;;;4993566;28;20433;-76
2021/07/15 03:10:04;;;;;;;3.70;2.50;;;;;;;;;;4990119;28;20465;-77
2021/07/15 03:12:36;;;;;;;2.90;2.08;;;;;;;;;;4987545;28;20036;-77
2021/07/15 03:15:04;;;;;;;5.95;2.40;;;;;;;;;;4990919;28;20030;-76
2021/07/15 03:17:36;;;;;;;6.10;2.65;;;;;;;;;;4989885;28;20050;-77
2021/07/15 03:20:12;;;;;;;3.58;2.25;;;;;;;;;;4997331;28;20026;-77
2021/07/15 03:22:41;;;;;;;3.72;2.35;;;;;;;;;;4991235;28;20029;-78
2021/07/15 03:25:13;;;;;;;5.10;2.42;;;;;;;;;;4992323;28;20110;-77
2021/07/15 03:27:44;;;;;;;3.10;2.20;;;;;;;;;;4984989;28;20026;-75
2021/07/15 03:30:11;;;;;;;2.70;2.10;;;;;;;;;;4983020;28;20461;-78
2021/07/15 03:32:38;;;;;;;4.32;2.03;;;;;;;;;;4988640;28;20125;-76
2021/07/15 03:35:05;;;;;;;3.97;2.22;;;;;;;;;;4985176;28;20481;-76
2021/07/15 03:37:32;;;;;;;8.40;3.10;;;;;;;;;;4986674;28;20034;-79
2021/07/15 03:39:58;;;;;;;6.55;2.65;;;;;;;;;;4994363;28;20478;-76
2021/07/15 03:42:27;;;;;;;4.85;2.22;;;;;;;;;;4989501;28;20034;-77
2021/07/15 03:44:53;;;;;;;8.07;2.50;;;;;;;;;;4989837;28;20053;-76
2021/07/15 03:47:22;;;;;;;3.05;2.10;;;;;;;;;;4988087;28;20027;-78
2021/07/15 03:49:49;;;;;;;2.85;1.90;;;;;;;;;;4990239;28;20022;-78
2021/07/15 03:52:16;;;;;;;5.55;2.17;;;;;;;;;;4968644;28;20038;-78
2021/07/15 03:54:44;;;;;;;3.42;2.08;;;;;;;;;;4985620;28;20088;-77
2021/07/15 03:57:10;;;;;;;5.30;2.65;;;;;;;;;;4989638;28;20038;-77
2021/07/15 03:59:39;;;;;;;4.63;2.20;;;;;;;;;;4994216;28;20022;-77
2021/07/15 04:02:08;;;;;;;5.35;2.55;;;;;;;;;;4989256;28;20031;-77
2021/07/15 04:04:34;;;;;;;4.88;2.63;;;;;;;;;;4972739;28;20141;-77
2021/07/15 04:07:06;;;;;;;4.57;2.13;;;;;;;;;;4985841;28;20026;-76
2021/07/15 04:09:34;;;;;;;3.47;1.98;;;;;;;;;;5002764;28;20200;-77
2021/07/15 04:12:01;;;;;;;3.70;2.05;;;;;;;;;;4993571;28;20063;-75
2021/07/15 04:14:48;;;;;;;4.47;2.30;;;;;;;;;;4985170;28;20031;-75
2021/07/15 04:17:16;;;;;;;4.13;2.20;;;;;;;;;;4986503;28;20046;-78
2021/07/15 04:19:43;;;;;;;6.38;2.30;;;;;;;;;;4995900;28;20038;-76
2021/07/15 04:22:10;;;;;;;4.68;2.50;;;;;;;;;;4995761;28;20390;-77
2021/07/15 04:24:38;;;;;;;4.93;2.20;;;;;;;;;;4982690;28;20030;-76
2021/07/15 04:27:05;;;;;;;5.32;2.33;;;;;;;;;;4989869;28;20088;-75
2021/07/15 04:29:31;;;;;;;3.38;2.13;;;;;;;;;;4990622;28;20145;-76
2021/07/15 04:32:00;;;;;;;4.35;2.10;;;;;;;;;;4990561;28;20049;-76
2021/07/15 04:34:27;;;;;;;5.65;2.45;;;;;;;;;;4990554;28;20043;-81
2021/07/15 04:36:54;;;;;;;4.53;2.20;;;;;;;;;;4989243;28;20034;-78
2021/07/15 04:39:23;;;;;;;4.63;2.30;;;;;;;;;;4989981;28;20031;-76
2021/07/15 04:41:49;;;;;;;3.15;1.83;;;;;;;;;;4990276;28;20026;-78
2021/07/15 04:44:15;;;;;;;3.60;2.40;;;;;;;;;;4983452;28;20049;-84
2021/07/15 04:46:42;;;;;;;4.55;2.13;;;;;;;;;;4988898;28;20030;-83
2021/07/15 04:49:08;;;;;;;5.57;2.45;;;;;;;;;;4994125;28;20042;-85
2021/07/15 04:51:40;;;;;;;4.50;2.25;;;;;;;;;;4988751;28;20022;-83
2021/07/15 04:54:07;;;;;;;6.40;2.28;;;;;;;;;;4983526;28;20034;-82
2021/07/15 04:56:33;;;;;;;3.70;2.20;;;;;;;;;;4990166;28;20072;-83
2021/07/15 04:59:01;;;;;;;2.80;2.10;;;;;;;;;;4990810;28;20038;-82
2021/07/15 05:01:26;;;;;;;5.68;2.10;;;;;;;;;;4988411;28;20034;-83
2021/07/15 05:03:52;;;;;;;5.45;2.10;;;;;;;;;;4988271;28;20026;-83
2021/07/15 05:06:19;;;;;;;3.63;2.20;;;;;;;;;;4987702;28;20101;-83
2021/07/15 05:08:45;;;;;;;4.15;2.28;;;;;;;;;;4986208;28;20030;-83
2021/07/15 05:11:12;;;;;;;4.90;2.50;;;;;;;;;;4993681;28;20031;-83
2021/07/15 05:13:38;;;;;;;7.80;2.08;;;;;;;;;;4996040;28;20022;-77
2021/07/15 05:16:04;;;;;;;3.72;1.98;;;;;;;;;;5001199;28;20027;-77
2021/07/15 05:18:30;;;;;;;8.00;2.00;;;;;;;;;;4999467;28;20166;-76
2021/07/15 05:20:56;;;;;;;7.28;2.78;;;;;;;;;;4997748;28;20034;-75
2021/07/15 05:23:21;;;;;;;5.95;2.45;;;;;;;;;;4978658;28;20033;-75
2021/07/15 05:25:47;;;;;;;6.07;2.47;;;;;;;;;;4992892;28;20030;-75
2021/07/15 05:28:13;;;;;;;6.07;2.88;;;;;;;;;;4991309;28;20026;-78
2021/07/15 05:30:38;;;;;;;5.55;2.42;;;;;;;;;;4992772;28;20044;-79
2021/07/15 05:33:04;;;;;;;4.70;2.13;;;;;;;;;;4990868;28;20452;-78
2021/07/15 05:35:30;;;;;;;7.32;2.72;;;;;;;;;;4992643;28;20026;-76
2021/07/15 05:37:55;;;;;;;5.28;2.53;;;;;;;;;;4985946;28;20031;-76
2021/07/15 05:40:21;;;;;;;6.43;2.70;;;;;;;;;;4978937;28;20065;-77
2021/07/15 05:42:46;;;;;;;4.60;2.28;;;;;;;;;;4991426;28;20057;-84
2021/07/15 05:45:11;;;;;;;11.20;2.85;;;;;;;;;;4992492;28;20047;-84
2021/07/15 05:47:37;;;;;;;5.25;2.50;;;;;;;;;;4992829;28;20405;-83
2021/07/15 05:50:04;;;;;;;5.47;2.50;;;;;;;;;;4975379;28;20034;-85
2021/07/15 05:52:29;;;;;;;7.65;2.42;;;;;;;;;;4984396;28;20062;-83
2021/07/15 05:54:57;;;;;;;3.35;2.13;;;;;;;;;;4992138;28;20064;-84
2021/07/15 05:57:23;;;;;;;5.88;2.67;;;;;;;;;;4992906;28;20568;-87
2021/07/15 05:59:49;;;;;;;4.60;2.30;;;;;;;;;;4978290;28;20811;-84
2021/07/15 06:02:15;;;;;;;7.65;2.60;;;;;;;;;;5001760;28;20027;-84
2021/07/15 06:04:41;;;;;;;9.93;2.88;;;;;;;;;;4994107;28;20077;-84
2021/07/15 06:07:07;;;;;;;8.35;2.90;;;;;;;;;;4993660;28;20425;-84
2021/07/15 06:09:32;;;;;;;5.15;2.53;;;;;;;;;;4981831;28;20030;-84
2021/07/15 06:11:57;;;;;;;4.32;2.58;;;;;;;;;;4975510;28;20034;-84
2021/07/15 06:14:23;;;;;;;10.43;3.40;;;;;;;;;;4990066;28;20015;-77
2021/07/15 06:16:48;;;;;;;8.32;3.10;;;;;;;;;;5002186;28;20050;-77
2021/07/15 06:19:14;;;;;;;4.80;2.78;;;;;;;;;;4989921;28;20161;-76
2021/07/15 06:21:39;;;;;;;7.40;3.17;;;;;;;;;;4987589;28;20053;-76
2021/07/15 06:24:05;;;;;;;11.23;2.90;;;;;;;;;;4996633;28;20508;-77
2021/07/15 06:26:31;;;;;;;9.63;2.80;;;;;;;;;;4990531;28;20401;-77
2021/07/15 06:28:56;;;;;;;9.07;2.65;;;;;;;;;;4990955;28;20027;-77
2021/07/15 06:31:22;;;;;;;7.78;3.05;;;;;;;;;;4974139;28;20042;-76
2021/07/15 06:33:47;;;;;;;4.68;2.42;;;;;;;;;;4990723;28;20037;-76
2021/07/15 06:36:13;;;;;;;6.75;2.38;;;;;;;;;;4991570;28;20027;-76
2021/07/15 06:38:38;;;;;;;7.75;2.88;;;;;;;;;;4989357;28;20027;-76
2021/07/15 06:41:07;;;;;;;4.90;2.63;;;;;;;;;;4992169;28;20096;-76
2021/07/15 06:43:34;;;;;;;8.25;2.30;;;;;;;;;;4998727;28;20030;-83
2021/07/15 06:46:00;;;;;;;4.85;2.65;;;;;;;;;;4987606;28;20251;-82
2021/07/15 06:48:26;;;;;;;6.78;2.72;;;;;;;;;;4992586;28;20113;-83
2021/07/15 06:50:52;;;;;;;7.85;2.90;;;;;;;;;;4989687;28;20040;-83
2021/07/15 06:53:17;;;;;;;5.82;3.03;;;;;;;;;;4992731;28;20022;-86
2021/07/15 06:55:43;;;;;;;6.55;2.33;;;;;;;;;;4962798;28;20027;-83
2021/07/15 06:58:09;;;;;;;5.40;2.20;;;;;;;;;;4989562;28;20030;-82
2021/07/15 07:00:35;;;;;;;4.00;1.90;;;;;;;;;;4990523;28;20030;-83
2021/07/15 07:03:01;;;;;;;7.05;2.47;;;;;;;;;;4989781;28;20038;-82
2021/07/15 07:05:26;;;;;;;5.80;2.40;;;;;;;;;;4987317;28;20038;-82
2021/07/15 07:07:52;;;;;;;4.97;2.30;;;;;;;;;;4987657;28;20514;-82
2021/07/15 07:10:18;;;;;;;5.68;1.98;;;;;;;;;;4991256;28;20030;-81
2021/07/15 07:12:45;;;;;;;5.15;1.65;;;;;;;;;;4991933;28;20038;-74
2021/07/15 07:15:13;;;;;;;3.47;1.70;;;;;;;;;;4997124;28;20665;-75
2021/07/15 07:17:39;;;;;;;3.40;1.40;;;;;;;;;;4981418;28;20042;-74
2021/07/15 07:20:06;;;;;;;4.43;1.83;;;;;;;;;;4987888;28;20041;-75
2021/07/15 07:22:32;;;;;;;3.97;2.10;;;;;;;;;;4981870;28;20031;-75
2021/07/15 07:24:58;;;;;;;9.02;1.70;;;;;;;;;;4971082;28;20032;-75
2021/07/15 07:27:23;;;;;;;3.25;2.00;;;;;;;;;;5001379;28;20573;-75
2021/07/15 07:29:49;;;;;;;4.93;1.70;;;;;;;;;;5006442;28;20030;-74
2021/07/15 07:32:14;;;;;;;3.58;1.98;;;;;;;;;;4998772;28;20029;-74
2021/07/15 07:34:40;;;;;;;9.25;2.10;;;;;;;;;;4972273;28;20433;-75
2021/07/15 07:37:05;;;;;;;10.35;1.83;;;;;;;;;;4994239;28;20037;-75
2021/07/15 07:39:31;;;;;;;8.93;2.00;;;;;;;;;;4976652;28;20475;-75
2021/07/15 07:41:57;;;;;;;4.65;1.80;;;;;;;;;;4989327;28;20569;-75
2021/07/15 07:44:22;;;;;;;8.95;2.28;;;;;;;;;;4986268;28;20148;-75
2021/07/15 07:46:48;;;;;;;5.43;2.30;;;;;;;;;;4990429;28;20030;-77
2021/07/15 07:49:13;;;;;;;5.22;2.00;;;;;;;;;;4988080;28;20101;-75
2021/07/15 07:51:39;;;;;;;6.25;2.22;;;;;;;;;;4972592;28;20046;-75
2021/07/15 07:54:04;;;;;;;3.95;2.00;;;;;;;;;;4988335;28;20026;-82
2021/07/15 07:56:32;;;;;;;5.15;2.00;;;;;;;;;;4990314;28;20037;-83
2021/07/15 07:58:58;;;;;;;7.43;2.97;;;;;;;;;;4988838;28;20034;-82
2021/07/15 08:01:23;;;;;;;4.55;2.03;;;;;;;;;;4988901;28;20037;-85
2021/07/15 08:03:49;;;;;;;5.40;1.80;;;;;;;;;;4990028;28;20038;-83
2021/07/15 08:06:15;;;;;;;6.57;1.85;;;;;;;;;;4989830;28;20041;-83
2021/07/15 08:08:41;;;;;;;4.60;1.90;;;;;;;;;;4985849;28;20639;-83
2021/07/15 08:11:07;;;;;;;3.47;1.90;;;;;;;;;;4983484;28;20034;-83
2021/07/15 08:13:34;;;;;;;4.30;2.03;;;;;;;;;;4991607;28;20030;-82
2021/07/15 08:15:59;;;;;;;3.03;1.80;;;;;;;;;;4991700;28;20130;-83
2021/07/15 08:18:25;;;;;;;2.83;1.65;;;;;;;;;;4995867;28;20120;-82
2021/07/15 08:20:51;;;;;;;5.18;1.58;;;;;;;;;;4986877;28;20057;-86
2021/07/15 08:23:17;;;;;;;10.93;2.03;;;;;;;;;;4984876;28;20370;-75
2021/07/15 08:25:42;;;;;;;6.82;1.75;;;;;;;;;;4989378;28;20033;-75
2021/07/15 08:28:08;;;;;;;3.30;1.65;;;;;;;;;;4988301;28;20080;-74
2021/07/15 08:30:34;;;;;;;6.20;1.90;;;;;;;;;;4986497;28;20444;-74
2021/07/15 08:32:59;;;;;;;2.55;1.52;;;;;;;;;;4988261;28;20034;-75
2021/07/15 08:35:28;;;;;;;4.00;1.70;;;;;;;;;;4988655;28;20473;-75
2021/07/15 08:37:55;;;;;;;4.38;1.90;;;;;;;;;;4968325;28;20039;-75
2021/07/15 08:40:22;;;;;;;3.85;1.85;;;;;;;;;;4989677;28;20041;-74
2021/07/15 08:42:47;;;;;;;4.53;1.77;;;;;;;;;;4989547;28;20539;-78
2021/07/15 08:45:13;;;;;;;4.25;1.83;;;;;;;;;;5012093;28;20062;-77
2021/07/15 08:47:41;;;;;;;4.50;2.40;;;;;;;;;;4974440;28;20733;-75
2021/07/15 08:50:09;;;;;;;4.45;1.75;;;;;;;;;;4991221;28;20022;-74
2021/07/15 08:52:35;;;;;;;3.85;1.63;;;;;;;;;;4984512;28;20065;-75
2021/07/15 08:57:39;;;;;;;3.97;1.63;;;;;;;;;;4992068;28;20092;-74
2021/07/15 09:00:07;;;;;;;5.18;1.80;;;;;;;;;;4998185;28;20034;-76
2021/07/15 09:02:33;;;;;;;3.72;2.00;;;;;;;;;;4990938;28;20039;-75
2021/07/15 09:04:59;;;;;;;3.08;1.70;;;;;;;;;;4991405;28;20034;-76
2021/07/15 09:07:24;;;;;;;4.15;1.92;;;;;;;;;;4990955;28;20088;-77
2021/07/15 09:09:50;;;;;;;2.35;1.50;;;;;;;;;;4972525;28;20490;-76
2021/07/15 09:12:16;;;;;;;3.10;1.58;;;;;;;;;;5006982;28;20614;-76
2021/07/15 09:14:50;;;;;;;2.08;1.52;;;;;;;;;;4991424;28;20503;-75
2021/07/15 09:17:25;;;;;;;2.63;1.60;;;;;;;;;;5010485;28;20129;-76
2021/07/15 09:19:51;;;;;;;4.32;1.80;;;;;;;;;;4989280;28;21741;-77
2021/07/15 09:22:17;;;;;;;4.47;2.00;;;;;;;;;;4992682;28;20038;-76
2021/07/15 09:24:44;;;;;;;3.40;1.83;;;;;;;;;;4988545;28;20030;-76
2021/07/15 09:27:13;;;;;;;3.08;1.98;;;;;;;;;;4990009;28;20400;-76
2021/07/15 09:29:39;;;;;;;3.50;1.60;;;;;;;;;;4993115;28;20026;-76
2021/07/15 09:32:05;;;;;;;3.72;2.00;;;;;;;;;;4984122;28;20463;-76
2021/07/15 09:34:33;;;;;;;4.88;2.05;;;;;;;;;;4995810;28;20113;-76
2021/07/15 09:37:07;;;;;;;5.30;2.10;;;;;;;;;;4998430;28;20475;-76
2021/07/15 09:39:44;;;;;;;3.35;2.00;;;;;;;;;;4990024;28;20444;-76
2021/07/15 09:42:20;;;;;;;4.22;1.95;;;;;;;;;;4992336;28;20081;-79
2021/07/15 09:44:51;;;;;;;2.33;1.70;;;;;;;;;;5007462;28;20057;-77
2021/07/15 09:47:42;;;;;;;3.15;1.60;;;;;;;;;;5002840;28;20050;-77
2021/07/15 09:50:16;;;;;;;2.80;1.60;;;;;;;;;;4989960;28;20065;-76
2021/07/15 09:52:43;;;;;;;4.13;1.67;;;;;;;;;;5008388;28;20021;-84
2021/07/15 09:55:26;;;;;;;2.55;1.77;;;;;;;;;;4997152;28;20029;-83
2021/07/15 09:58:05;;;;;;;3.10;1.63;;;;;;;;;;4985268;28;20117;-84
2021/07/15 10:00:35;;;;;;;2.78;1.50;;;;;;;;;;4974960;28;20063;-84
2021/07/15 10:03:02;;;;;;;1.80;1.50;;;;;;;;;;4990215;28;20081;-84
2021/07/15 10:05:27;;;;;;;3.63;1.50;;;;;;;;;;5003895;28;20030;-85
2021/07/15 10:08:07;;;;;;;5.10;2.88;;;;;;;;;;4990783;28;20436;-82
2021/07/15 10:10:33;;;;;;;5.80;1.88;;;;;;;;;;4997099;28;20100;-84
2021/07/15 10:13:12;;;;;;;3.17;1.80;;;;;;;;;;4993015;28;20086;-82
2021/07/15 10:15:38;;;;;;;2.05;1.63;;;;;;;;;;4994759;28;20496;-83
2021/07/15 10:18:03;;;;;;;5.03;1.67;;;;;;;;;;4991722;28;20054;-84
2021/07/15 10:20:29;;;;;;;3.65;2.05;;;;;;;;;;4997719;28;20037;-83
2021/07/15 10:22:55;;;;;;;3.47;1.95;;;;;;;;;;4998130;28;20035;-76
2021/07/15 10:25:20;;;;;;;5.22;1.70;;;;;;;;;;4995144;28;20027;-75
2021/07/15 10:27:46;;;;;;;5.28;2.20;;;;;;;;;;4985946;28;20031;-76
2021/07/15 10:30:14;;;;;;;4.15;2.20;;;;;;;;;;4983808;28;20692;-75
2021/07/15 10:32:43;;;;;;;2.80;1.80;;;;;;;;;;4999357;28;20034;-75
2021/07/15 10:35:12;;;;;;;3.75;2.10;;;;;;;;;;5004655;28;20504;-76
2021/07/15 10:37:40;;;;;;;3.80;2.00;;;;;;;;;;4996778;28;20456;-74
2021/07/15 10:40:12;;;;;;;5.30;2.17;;;;;;;;;;4987231;28;20045;-75
2021/07/15 10:42:39;;;;;;;2.67;2.00;;;;;;;;;;5000800;28;20612;-76
2021/07/15 10:45:09;;;;;;;3.25;2.08;;;;;;;;;;4994333;28;20025;-75
2021/07/15 10:47:39;;;;;;;4.78;1.95;;;;;;;;;;4987938;28;20104;-75
2021/07/15 10:50:09;;;;;;;3.95;2.50;;;;;;;;;;4996424;28;20030;-76
2021/07/15 10:52:37;;;;;;;3.35;2.03;;;;;;;;;;4983906;28;20068;-76
2021/07/15 10:55:05;;;;;;;5.60;2.00;;;;;;;;;;4990592;28;20022;-77
2021/07/15 10:57:31;;;;;;;3.38;2.20;;;;;;;;;;4996884;28;20486;-75
2021/07/15 11:00:26;;;;;;;4.97;2.13;;;;;;;;;;5004424;28;20030;-76
2021/07/15 11:03:12;;;;;;;6.32;2.30;;;;;;;;;;4984225;28;20030;-76
2021/07/15 11:05:56;;;;;;;3.47;1.90;;;;;;;;;;4990385;28;20397;-75
2021/07/15 11:08:48;;;;;;;5.88;2.20;;;;;;;;;;4985680;28;20698;-75
2021/07/15 11:11:15;;;;;;;4.53;2.30;;;;;;;;;;4985349;28;20037;-75
2021/07/15 11:13:44;;;;;;;3.40;2.25;;;;;;;;;;4989770;28;20022;-75
2021/07/15 11:16:10;;;;;;;5.57;1.98;;;;;;;;;;4988618;28;20038;-75
2021/07/15 11:19:01;;;;;;;3.00;1.90;;;;;;;;;;5005184;28;20058;-76
2021/07/15 11:21:26;;;;;;;3.30;2.05;;;;;;;;;;4999741;28;20053;-76
2021/07/15 11:23:53;;;;;;;6.82;2.70;;;;;;;;;;4995312;28;20104;-75
2021/07/15 11:26:30;;;;;;;3.00;2.30;;;;;;;;;;4979005;28;20033;-75
2021/07/15 11:28:56;;;;;;;5.28;1.77;;;;;;;;;;4976615;28;20110;-76
2021/07/15 11:31:41;;;;;;;4.75;2.33;;;;;;;;;;4992333;28;20637;-75
2021/07/15 11:34:06;;;;;;;3.47;2.28;;;;;;;;;;4989631;28;20077;-75
2021/07/15 11:36:32;;;;;;;3.60;2.20;;;;;;;;;;4996305;28;20030;-76
2021/07/15 11:39:08;;;;;;;3.92;2.30;;;;;;;;;;4988541;28;20038;-76
2021/07/15 11:41:50;;;;;;;2.83;2.13;;;;;;;;;;4986284;28;20109;-76
2021/07/15 11:44:17;;;;;;;3.55;2.22;;;;;;;;;;4982562;28;20030;-75
2021/07/15 11:46:45;;;;;;;3.60;2.33;;;;;;;;;;4994009;28;20547;-75
2021/07/15 11:49:12;;;;;;;3.00;2.50;;;;;;;;;;4990767;28;20034;-76
2021/07/15 11:52:00;;;;;;;6.55;2.60;;;;;;;;;;4990717;28;20030;-75
2021/07/15 11:54:32;;;;;;;4.90;2.50;;;;;;;;;;4988770;28;20092;-76
2021/07/15 11:57:12;;;;;;;5.90;2.47;;;;;;;;;;4985274;28;20041;-75
2021/07/15 11:59:43;;;;;;;3.72;2.60;;;;;;;;;;4987482;28;20033;-75
2021/07/15 12:02:39;;;;;;;3.45;2.50;;;;;;;;;;4990112;28;20092;-76
2021/07/15 12:05:34;;;;;;;5.28;2.20;;;;;;;;;;4987509;28;20528;-75
2021/07/15 12:08:14;;;;;;;5.32;2.72;;;;;;;;;;4988499;28;20041;-76
2021/07/15 12:10:44;;;;;;;2.75;2.20;;;;;;;;;;4982911;28;20481;-76
2021/07/15 12:13:13;;;;;;;6.97;2.47;;;;;;;;;;4983963;28;20080;-75
2021/07/15 12:15:41;;;;;;;3.13;2.28;;;;;;;;;;4984001;28;20023;-76
2021/07/15 12:18:16;;;;;;;3.50;2.13;;;;;;;;;;4997671;28;20056;-75
2021/07/15 12:20:49;;;;;;;4.40;2.63;;;;;;;;;;4993778;28;20026;-76
2021/07/15 12:23:18;;;;;;;3.50;2.22;;;;;;;;;;4992202;28;20492;-76
2021/07/15 12:25:45;;;;;;;3.33;2.50;;;;;;;;;;5000629;28;20065;-75
2021/07/15 12:28:16;;;;;;;3.85;2.00;;;;;;;;;;4986942;28;20632;-75
2021/07/15 12:30:50;;;;;;;4.22;2.05;;;;;;;;;;4989648;28;20566;-75
2021/07/15 12:33:17;;;;;;;3.13;2.63;;;;;;;;;;4990922;28;20516;-76
2021/07/15 12:35:46;;;;;;;2.50;2.20;;;;;;;;;;4992027;28;20466;-76
2021/07/15 12:38:30;;;;;;;5.03;2.13;;;;;;;;;;4988987;28;20065;-76
2021/07/15 12:41:08;;;;;;;2.80;2.28;;;;;;;;;;4999055;28;20543;-76
2021/07/15 12:43:47;;;;;;;3.65;2.40;;;;;;;;;;4991711;28;20049;-76
2021/07/15 12:46:18;;;;;;;2.70;2.17;;;;;;;;;;4987322;28;20035;-76
2021/07/15 12:48:47;;;;;;;2.97;2.30;;;;;;;;;;4990909;28;20038;-76
2021/07/15 12:51:14;;;;;;;4.07;2.55;;;;;;;;;;4994577;28;20084;-77
2021/07/15 12:53:44;;;;;;;4.25;2.15;;;;;;;;;;4991343;28;20033;-76
2021/07/15 12:56:10;;;;;;;2.67;1.90;;;;;;;;;;4991109;28;20042;-76
2021/07/15 12:58:36;;;;;;;3.63;2.30;;;;;;;;;;4992207;28;20037;-77
2021/07/15 13:01:06;;;;;;;5.45;2.10;;;;;;;;;;4989043;28;20030;-76
2021/07/15 13:03:32;;;;;;;3.30;2.00;;;;;;;;;;4991890;28;20062;-76
2021/07/15 13:05:58;;;;;;;3.45;2.70;;;;;;;;;;4993392;28;20069;-76
2021/07/15 13:08:37;;;;;;;2.85;1.80;;;;;;;;;;4993024;28;20126;-76
2021/07/15 13:16:52;;;;;;;3.72;1.63;;;;;;;;;;4987920;28;20113;-75
2021/07/15 13:19:21;;;;;;;2.92;1.52;;;;;;;;;;5011981;28;20049;-76
2021/07/15 13:21:48;;;;;;;3.22;1.77;;;;;;;;;;4992697;28;20089;-76
2021/07/15 13:24:14;;;;;;;3.05;1.80;;;;;;;;;;4989118;28;20030;-76
2021/07/15 13:26:50;;;;;;;2.63;1.52;;;;;;;;;;4991298;28;20041;-75
2021/07/15 13:29:16;;;;;;;2.40;1.50;;;;;;;;;;4991350;28;20030;-75
2021/07/15 13:31:42;;;;;;;3.47;1.60;;;;;;;;;;5012564;28;20026;-76
2021/07/15 13:34:10;;;;;;;3.05;1.50;;;;;;;;;;4992581;28;20038;-77
2021/07/15 13:36:48;;;;;;;2.40;1.45;;;;;;;;;;4992716;28;20065;-76
2021/07/15 13:39:32;;;;;;;5.63;2.22;;;;;;;;;;4975304;28;20034;-76
2021/07/15 13:41:58;;;;;;;4.82;1.65;;;;;;;;;;4979623;28;20034;-77
2021/07/15 13:44:23;;;;;;;1.83;1.45;;;;;;;;;;5007168;28;20441;-76
2021/07/15 13:47:09;;;;;;;4.93;2.03;;;;;;;;;;4988416;28;20409;-76
2021/07/15 13:49:36;;;;;;;3.70;1.65;;;;;;;;;;4990026;28;20030;-77
2021/07/15 13:52:07;;;;;;;2.05;1.40;;;;;;;;;;4975706;28;20032;-78
2021/07/15 13:54:33;;;;;;;1.88;1.35;;;;;;;;;;4988188;28;20113;-74
2021/07/15 13:57:07;;;;;;;3.22;1.30;;;;;;;;;;4990447;28;20081;-76
2021/07/15 13:59:34;;;;;;;3.60;1.10;;;;;;;;;;4989959;28;20034;-74
2021/07/15 14:02:08;;;;;;;4.88;1.15;;;;;;;;;;4993465;28;20089;-74
2021/07/15 14:04:38;;;;;;;1.52;1.30;;;;;;;;;;4991393;28;20503;-75
2021/07/15 14:07:04;;;;;;;1.83;1.45;;;;;;;;;;4989182;28;20084;-76
2021/07/15 14:09:37;;;;;;;5.10;1.67;;;;;;;;;;4985842;28;20026;-76
2021/07/15 14:12:14;;;;;;;5.90;1.95;;;;;;;;;;5012149;28;20042;-76
2021/07/15 14:14:53;;;;;;;4.28;1.58;;;;;;;;;;4988882;28;20033;-77
2021/07/15 14:17:24;;;;;;;6.93;1.98;;;;;;;;;;4991992;28;20058;-77
2021/07/15 14:19:54;;;;;;;5.97;1.98;;;;;;;;;;4991517;28;20029;-76
2021/07/15 14:22:20;;;;;;;4.93;2.00;;;;;;;;;;4991418;28;20038;-77
2021/07/15 14:24:46;;;;;;;6.35;1.80;;;;;;;;;;4971742;28;20428;-75
2021/07/15 14:27:17;;;;;;;8.43;2.05;;;;;;;;;;4972667;28;20030;-76
2021/07/15 14:29:45;;;;;;;7.15;1.90;;;;;;;;;;4987542;28;20884;-77
2021/07/15 14:32:10;;;;;;;3.25;1.60;;;;;;;;;;4990069;28;20061;-76
2021/07/15 14:34:36;;;;;;;5.25;1.65;;;;;;;;;;4991773;28;20058;-76
2021/07/15 14:37:02;;;;;;;3.88;1.98;;;;;;;;;;4989787;28;20030;-77
2021/07/15 14:39:28;;;;;;;6.35;1.60;;;;;;;;;;4991160;28;20030;-77
2021/07/15 14:41:53;;;;;;;3.08;1.55;;;;;;;;;;4989762;28;20760;-77
2021/07/15 14:44:19;;;;;;;5.78;2.03;;;;;;;;;;4987442;28;20042;-77
2021/07/15 14:46:44;;;;;;;6.35;1.70;;;;;;;;;;4988944;28;20041;-76
2021/07/15 14:49:11;;;;;;;4.97;1.48;;;;;;;;;;4971094;28;20030;-77
2021/07/15 14:51:37;;;;;;;5.38;1.50;;;;;;;;;;4989651;28;20030;-76
2021/07/15 14:54:02;;;;;;;2.60;1.85;;;;;;;;;;4985723;28;21681;-77
2021/07/15 14:56:28;;;;;;;10.88;1.60;;;;;;;;;;4994114;28;20038;-77
2021/07/15 14:58:55;;;;;;;3.70;1.70;;;;;;;;;;4990838;28;20403;-77
2021/07/15 15:01:21;;;;;;;4.97;1.60;;;;;;;;;;4991060;28;20037;-78
2021/07/15 15:03:47;;;;;;;4.57;1.77;;;;;;;;;;4995976;28;20046;-77